Latest Weather Observations for Kilmore Gap

IDV60801

Issued at 4:05 pm EST Sunday 31 August 2014 (issued every 30 minutes, with the page automatically refreshed every 10 minutes)

About weather observations | Map of weather stations | Latest weather observations for VIC | Other Formats
Station Details ID: 088162 Name: KILMORE GAP Lat: -37.38 Lon: 144.97 Height: 527.8 m
Data from the previous 72 hours. | See also: Recent months at Kilmore Gap
Date/Time
EST
Temp
°C
App
Temp
°C
Dew
Point
Rel
Hum
%
Delta-T
°C
Wind Press
QNH
hPa
Press
MSL
hPa
Rain
since 9 am
mm
Dir
 
Spd
km/h
Gust
km/h
Spd
kts
Gust
kts
31/04:00pm 13.6 6.9 8.2 70 2.8 NNE 33 41 18 22 1015.0 - 0.0
31/03:30pm 13.9 7.4 8.3 69 2.9 N 32 41 17 22 1015.4 - 0.0
31/03:00pm 14.0 7.9 8.4 69 2.9 N 30 41 16 22 1015.9 1016.8 0.0
31/02:30pm 14.1 8.9 8.7 70 2.8 N 26 37 14 20 1016.4 - 0.0
31/02:00pm 15.1 9.6 9.2 68 3.1 N 28 39 15 21 1016.6 - 0.0
31/01:30pm 15.3 9.1 9.2 67 3.2 N 32 39 17 21 1017.1 - 0.0
31/01:00pm 15.0 9.1 8.9 67 3.2 N 30 41 16 22 1017.5 - 0.0
31/12:30pm 14.7 8.2 8.9 68 3.0 N 33 41 18 22 1017.8 - 0.0
31/12:00pm 14.2 7.8 8.6 69 2.9 N 32 39 17 21 1018.3 1019.2 0.0
31/11:30am 13.2 6.6 8.7 74 2.3 N 33 41 18 22 1018.7 - 0.0
31/11:00am 12.5 5.5 8.6 77 2.0 N 35 44 19 24 1018.8 - 0.0
31/10:30am 11.9 5.4 8.9 82 1.5 N 33 41 18 22 1019.2 - 0.0
31/10:00am 11.1 3.4 8.5 84 1.3 N 39 50 21 27 1019.5 - 0.0
31/09:30am 10.5 2.9 9.1 91 0.7 N 39 48 21 26 1019.8 - 0.0
31/09:00am 10.0 2.3 8.8 92 0.6 N 39 48 21 26 1019.7 1020.6 0.0
31/08:30am 9.6 2.4 9.0 96 0.3 N 37 44 20 24 1019.8 - 0.0
31/08:00am 8.7 1.7 8.6 99 0.0 N 35 43 19 23 1019.9 - 0.0
31/07:30am 8.1 1.4 8.0 99 0.0 N 33 41 18 22 1020.0 - 0.0
31/07:00am 8.2 1.1 8.1 99 0.0 N 35 43 19 23 1019.8 - 0.0
31/06:30am 8.2 1.1 8.1 99 0.0 N 35 43 19 23 1019.5 - 0.0
31/06:00am 8.0 0.9 7.9 99 0.0 N 35 43 19 23 1019.3 1020.2 0.0
31/05:30am 8.6 1.2 8.3 98 0.1 N 37 44 20 24 1018.9 - 0.0
31/05:00am 8.9 1.9 8.3 96 0.3 N 35 43 19 23 1019.1 - 0.0
31/04:30am 8.9 2.4 8.1 95 0.4 N 32 39 17 21 1019.1 - 0.0
31/04:00am 8.8 2.3 8.2 96 0.3 N 32 37 17 20 1019.3 - 0.0
31/03:30am 8.8 2.6 7.9 94 0.4 N 30 35 16 19 1019.3 - 0.0
31/03:00am 8.6 2.4 7.8 95 0.4 N 30 35 16 19 1019.4 1020.3 0.0
31/02:30am 9.2 3.4 8.0 92 0.6 N 28 33 15 18 1019.7 - 0.0
31/02:00am 9.2 3.4 8.0 92 0.6 N 28 32 15 17 1020.1 - 0.0
31/01:30am 9.7 4.3 8.0 89 0.8 N 26 32 14 17 1020.4 - 0.0
31/01:00am 9.9 4.5 8.0 88 0.9 N 26 32 14 17 1020.7 - 0.0
31/12:30am 9.8 4.4 8.2 90 0.8 N 26 28 14 15 1020.9 - 0.0
31/12:00am 9.8 4.9 8.4 91 0.7 N 24 26 13 14 1021.1 1022.0 0.0
 
Date/Time
EST
Temp
°C
App
Temp
°C
Dew
Point
Rel
Hum
%
Delta-T
°C
Wind Press
QNH
hPa
Press
MSL
hPa
Rain
since 9 am
mm
Dir
 
Spd
km/h
Gust
km/h
Spd
kts
Gust
kts
30/11:30pm 10.3 5.8 8.6 89 0.9 N 22 24 12 13 1021.5 - 0.0
30/11:00pm 10.3 6.1 8.4 88 1.0 N 20 24 11 13 1021.8 - 0.0
30/10:30pm 10.5 6.4 8.6 88 1.0 N 20 24 11 13 1022.2 - 0.0
30/10:00pm 10.5 6.0 8.6 88 1.0 N 22 24 12 13 1022.4 - 0.0
30/09:30pm 10.6 6.5 8.5 87 1.1 N 20 24 11 13 1022.7 - 0.0
30/09:00pm 10.6 6.5 8.5 87 1.1 N 20 22 11 12 1022.6 1023.5 0.0
30/08:30pm 11.1 7.0 8.5 84 1.3 N 20 22 11 12 1022.6 - 0.0
30/08:00pm 11.4 7.2 8.4 82 1.5 N 20 24 11 13 1022.3 - 0.0
30/07:30pm 11.6 7.5 8.6 82 1.5 N 20 24 11 13 1022.2 - 0.0
30/07:00pm 11.5 7.6 8.5 82 1.5 N 19 20 10 11 1022.3 - 0.0
30/06:30pm 11.7 8.5 8.6 81 1.6 N 15 17 8 9 1022.6 - 0.0
30/06:00pm 11.9 8.7 8.6 80 1.7 N 15 19 8 10 1022.6 1023.5 0.0
30/05:30pm 13.1 9.6 8.6 74 2.3 N 17 20 9 11 1022.6 - 0.0
30/05:00pm 14.2 9.7 8.6 69 2.9 N 22 28 12 15 1022.3 - 0.0
30/04:30pm 14.6 11.2 9.0 69 2.9 N 17 30 9 16 1022.3 - 0.0
30/04:00pm 15.0 11.2 9.8 71 2.8 N 20 26 11 14 1022.4 - 0.0
30/03:30pm 14.7 10.2 8.6 67 3.2 N 22 28 12 15 1022.6 - 0.0
30/03:00pm 14.9 9.7 8.8 67 3.2 N 26 33 14 18 1022.7 1023.6 0.0
30/02:30pm 14.9 9.8 9.1 68 3.0 N 26 37 14 20 1023.0 - 0.0
30/02:00pm 14.6 9.4 9.0 69 2.9 N 26 37 14 20 1023.2 - 0.0
30/01:30pm 15.0 10.7 10.8 76 2.3 N 24 32 13 17 1023.6 - 0.0
30/01:00pm 14.4 9.1 10.0 75 2.3 N 28 35 15 19 1023.9 - 0.0
30/12:30pm 14.5 9.2 9.9 74 2.5 N 28 37 15 20 1024.2 - 0.0
30/12:00pm 14.0 8.0 8.8 71 2.7 N 30 37 16 20 1024.4 1025.4 0.0
30/11:30am 13.2 6.8 8.7 74 2.3 N 32 37 17 20 1024.8 - 0.0
30/11:00am 12.7 6.3 8.4 75 2.2 N 32 39 17 21 1025.1 - 0.0
30/10:30am 12.3 5.9 8.6 78 1.9 N 32 39 17 21 1025.4 - 0.0
30/10:00am 11.7 5.7 8.6 81 1.6 N 30 39 16 21 1025.7 - 0.0
30/09:30am 11.2 5.9 8.4 83 1.4 N 26 35 14 19 1025.7 - 0.0
30/09:00am 10.1 5.4 9.2 94 0.5 N 24 32 13 17 1025.7 1026.7 0.0
30/08:30am 8.3 3.3 8.2 99 0.0 N 24 26 13 14 1025.7 - 0.0
30/08:00am 7.3 2.5 7.3 100 0.0 N 22 26 12 14 1025.6 - 0.0
30/07:30am 7.0 1.7 7.0 100 0.0 N 24 28 13 15 1025.5 - 0.0
30/07:24am 6.7 1.4 6.7 100 0.0 N 24 26 13 14 1025.5 - 0.0
30/07:00am 6.1 1.4 6.1 100 0.0 N 20 24 11 13 1025.3 - 0.0
30/06:30am 5.9 1.4 5.9 100 0.0 NNE 19 20 10 11 1025.1 - 0.0
30/06:00am 6.0 2.6 6.0 100 0.0 ENE 13 15 7 8 1025.0 1025.9 0.0
30/05:56am 6.1 2.4 6.1 100 0.0 ENE 15 17 8 9 1025.1 - 0.0
30/05:30am 6.7 4.6 6.7 100 0.0 ENE 7 9 4 5 1025.0 - 0.0
30/05:00am 7.3 5.0 7.3 100 0.0 E 9 13 5 7 1025.0 - 0.0
30/04:30am 7.6 5.9 7.6 100 0.0 S 6 7 3 4 1025.1 - 0.0
30/04:00am 7.7 6.0 7.7 100 0.0 S 6 7 3 4 1025.1 - 0.0
30/03:30am 7.8 6.2 7.8 100 0.0 S 6 9 3 5 1025.1 - 0.0
30/03:00am 7.9 6.1 7.9 100 0.0 SSW 7 11 4 6 1025.4 1026.4 0.0
30/02:30am 8.1 6.0 8.1 100 0.0 SSW 9 13 5 7 1025.6 - 0.0
30/02:00am 8.2 5.7 8.2 100 0.0 S 11 17 6 9 1025.8 - 0.0
30/01:30am 8.3 5.4 8.3 100 0.0 S 13 17 7 9 1026.1 - 0.0
30/01:00am 8.3 5.4 8.3 100 0.0 SSW 13 17 7 9 1026.3 - 0.0
30/12:30am 8.4 5.6 8.4 100 0.0 S 13 19 7 10 1026.5 - 0.0
30/12:00am 8.5 5.7 8.5 100 0.0 S 13 17 7 9 1026.7 1027.6 0.0
 
Date/Time
EST
Temp
°C
App
Temp
°C
Dew
Point
Rel
Hum
%
Delta-T
°C
Wind Press
QNH
hPa
Press
MSL
hPa
Rain
since 9 am
mm
Dir
 
Spd
km/h
Gust
km/h
Spd
kts
Gust
kts
29/11:30pm 8.4 5.2 8.4 100 0.0 S 15 20 8 11 1026.8 - 0.0
29/11:00pm 8.5 4.9 8.5 100 0.0 S 17 24 9 13 1026.9 - 0.0
29/10:30pm 8.4 4.8 8.4 100 0.0 S 17 22 9 12 1027.0 - 0.0
29/10:00pm 8.3 4.7 8.3 100 0.0 S 17 24 9 13 1027.2 - 0.0
29/09:30pm 8.2 4.6 8.2 100 0.0 S 17 22 9 12 1027.1 - 0.0
29/09:00pm 8.3 4.3 8.3 100 0.0 S 19 28 10 15 1027.0 1028.0 0.0
29/08:30pm 8.6 4.7 8.6 100 0.0 S 19 24 10 13 1027.1 - 0.0
29/08:00pm 8.9 4.8 8.6 98 0.2 S 20 32 11 17 1027.1 - 0.0
29/07:30pm 9.0 5.1 8.5 97 0.2 S 19 26 10 14 1027.1 - 0.0
29/07:00pm 9.0 5.4 8.4 96 0.3 S 17 22 9 12 1027.0 - 0.0
29/06:30pm 8.9 4.9 8.1 95 0.4 S 19 28 10 15 1026.9 - 0.0
29/06:00pm 8.7 5.0 8.1 96 0.3 SSE 17 26 9 14 1026.8 1027.7 0.0
29/05:30pm 8.9 4.9 8.1 95 0.4 S 19 28 10 15 1026.9 - 0.0
29/05:00pm 9.0 5.3 8.1 94 0.4 S 17 26 9 14 1026.9 - 0.0
29/04:30pm 9.2 5.6 8.4 95 0.4 S 17 24 9 13 1026.9 - 0.0
29/04:00pm 9.4 5.5 8.8 96 0.3 S 19 28 10 15 1026.9 - 0.0
29/03:30pm 10.0 6.6 9.2 95 0.4 S 17 28 9 15 1026.8 - 0.0
29/03:00pm 9.5 6.0 8.7 95 0.4 S 17 24 9 13 1027.0 1028.0 0.0
29/02:30pm 9.5 6.6 9.5 100 0.0 S 15 20 8 11 1027.1 - 0.0
29/02:00pm 8.5 5.3 8.5 100 0.0 S 15 22 8 12 1027.3 - 0.0
29/01:30pm 8.0 4.7 8.0 100 0.0 S 15 20 8 11 1027.6 - 0.0
29/01:00pm 7.9 4.2 7.9 100 0.0 S 17 20 9 11 1028.0 - 0.0
29/12:30pm 7.7 4.3 7.7 100 0.0 S 15 20 8 11 1028.3 - 0.0
29/12:00pm 7.1 3.6 7.1 100 0.0 S 15 22 8 12 1028.9 1029.9 0.0
29/11:30am 7.1 3.6 7.1 100 0.0 S 15 24 8 13 1029.1 - 0.0
29/11:00am 6.9 3.3 6.9 100 0.0 S 15 20 8 11 1029.2 - 0.0
29/10:30am 6.8 3.2 6.8 100 0.0 S 15 22 8 12 1029.2 - 0.0
29/10:00am 6.4 3.1 6.4 100 0.0 SSW 13 19 7 10 1029.1 - 0.0
29/09:30am 7.1 4.3 7.1 100 0.0 S 11 15 6 8 1029.1 - 0.0
29/09:00am 7.3 4.6 7.3 100 0.0 S 11 13 6 7 1029.1 1030.1 0.0
29/08:30am 7.2 4.1 7.2 100 0.0 SW 13 15 7 8 1029.0 - 0.0
29/08:29am 7.3 4.2 7.3 100 0.0 SW 13 15 7 8 1029.0 - 0.0
29/08:00am 7.7 4.7 7.7 100 0.0 SSW 13 17 7 9 1028.8 - 0.0
29/07:41am 7.8 5.6 7.8 100 0.0 S 9 13 5 7 1028.7 - 0.0
29/07:30am 7.7 4.7 7.7 100 0.0 SW 13 17 7 9 1028.4 - 0.0
29/07:00am 7.5 5.6 7.5 100 0.0 SSW 7 11 4 6 1028.0 - 0.0
29/06:49am 7.8 5.6 7.7 99 0.0 SSW 9 9 5 5 1028.0 - 0.0
29/06:37am 7.7 5.3 7.0 95 0.3 SSW 9 11 5 6 1027.9 - 0.0
29/06:30am 8.1 5.8 7.3 95 0.4 SSW 9 11 5 6 1027.8 - 0.0
29/06:00am 7.6 5.3 7.6 100 0.0 SW 9 11 5 6 1027.5 1028.5 0.0
29/05:30am 7.1 4.7 7.0 99 0.0 SSW 9 11 5 6 1027.5 - 0.0
29/05:00am 7.1 4.7 7.0 99 0.0 S 9 11 5 6 1027.5 - 0.0
29/04:30am 7.1 4.2 6.7 97 0.2 S 11 15 6 8 1027.7 - 0.0
29/04:14am 7.3 4.1 6.9 97 0.2 SSW 13 17 7 9 1027.7 - 0.0
29/04:00am 7.2 3.9 6.5 95 0.3 SSW 13 15 7 8 1027.8 - 0.0
29/03:30am 7.8 4.9 6.3 90 0.7 SSW 11 15 6 8 1027.7 - 0.0
29/03:00am 8.9 5.8 5.6 80 1.5 SSW 11 15 6 8 1027.8 1028.8 0.0
29/02:30am 9.8 7.1 5.6 75 2.0 S 9 9 5 5 1027.8 - 0.0
29/02:00am 9.7 7.4 5.7 76 1.9 S 7 9 4 5 1027.8 - 0.0
29/01:30am 9.6 7.2 5.2 74 2.1 SSW 7 9 4 5 1028.1 - 0.0
29/01:00am 9.4 7.1 5.8 78 1.7 SSW 7 9 4 5 1028.2 - 0.0
29/12:30am 10.4 8.0 5.4 71 2.4 S 7 9 4 5 1028.2 - 0.0
29/12:00am 10.4 8.0 5.4 71 2.3 S 7 11 4 6 1028.4 1029.4 0.0
 
Date/Time
EST
Temp
°C
App
Temp
°C
Dew
Point
Rel
Hum
%
Delta-T
°C
Wind Press
QNH
hPa
Press
MSL
hPa
Rain
since 9 am
mm
Dir
 
Spd
km/h
Gust
km/h
Spd
kts
Gust
kts
28/11:30pm 10.5 8.1 5.3 70 2.4 SSE 7 9 4 5 1028.4 - 0.0
28/11:00pm 11.0 8.6 5.3 68 2.7 SSE 7 9 4 5 1028.5 - 0.0
28/10:30pm 11.5 8.7 5.2 65 3.0 SSE 9 11 5 6 1028.7 - 0.0
28/10:00pm 10.7 7.9 5.0 68 2.7 S 9 11 5 6 1028.8 - 0.0
28/09:30pm 10.6 7.4 4.9 68 2.7 S 11 13 6 7 1029.0 - 0.0
28/09:00pm 11.0 7.7 4.7 65 2.9 S 11 13 6 7 1028.8 1029.8 0.0
28/08:30pm 10.5 7.0 5.3 70 2.4 S 13 17 7 9 1028.7 - 0.0
28/08:00pm 10.7 6.9 5.7 71 2.4 S 15 19 8 10 1028.4 - 0.0
28/07:30pm 11.3 7.7 5.0 65 3.0 S 13 17 7 9 1028.1 - 0.0
28/07:00pm 11.3 7.9 5.8 69 2.6 S 13 17 7 9 1028.1 - 0.0
28/06:30pm 13.0 10.6 7.2 68 2.9 S 9 15 5 8 1027.9 - 0.0
28/06:00pm 13.9 11.2 7.4 65 3.3 N 11 11 6 6 1027.7 1028.7 0.0
28/05:30pm 14.0 11.4 7.8 66 3.2 N 11 13 6 7 1027.3 - 0.0
28/05:00pm 14.8 12.3 8.1 64 3.5 N 11 13 6 7 1027.3 - 0.0
28/04:30pm 15.7 13.4 8.9 64 3.6 N 11 15 6 8 1027.2 - 0.0

Other Formats:

Comma delimited format used in spreadsheet applications
http://www.bom.gov.au/fwo/IDV60801/IDV60801.94860.axf

JavaScript Object Notation format (JSON) in row-major order
http://www.bom.gov.au/fwo/IDV60801/IDV60801.94860.json